createdAt,value
2023-02-14T00:01:25.786Z,99788.56
2023-02-14T00:03:54.723Z,99792.00
2023-02-14T00:06:22.297Z,99798.84
2023-02-14T00:08:52.365Z,99797.06
2023-02-14T00:11:20.701Z,99791.00
2023-02-14T00:14:06.777Z,99786.59
2023-02-14T00:16:34.210Z,99797.91
2023-02-14T00:19:04.597Z,99793.50
2023-02-14T00:21:41.038Z,99797.88
2023-02-14T00:24:14.262Z,99800.28
2023-02-14T00:26:42.457Z,99804.75
2023-02-14T00:29:13.947Z,99803.00
2023-02-14T00:31:42.359Z,99803.00
2023-02-14T00:34:11.278Z,99807.25
2023-02-14T00:36:39.532Z,99793.56
2023-02-14T00:39:10.933Z,99800.59
2023-02-14T00:41:39.895Z,99799.78
2023-02-14T00:44:09.793Z,99805.06
2023-02-14T00:46:38.829Z,99812.66
2023-02-14T00:49:06.615Z,99807.66
2023-02-14T00:51:33.986Z,99808.63
2023-02-14T00:54:02.065Z,99814.59
2023-02-14T00:56:29.572Z,99813.09
2023-02-14T00:58:57.262Z,99814.94
2023-02-14T01:01:24.575Z,99811.47
2023-02-14T01:03:52.190Z,99816.75
2023-02-14T01:06:19.977Z,99808.91
2023-02-14T01:08:47.937Z,99804.50
2023-02-14T01:11:19.994Z,99800.25
2023-02-14T01:13:49.839Z,99801.13
2023-02-14T01:16:23.824Z,99806.28
2023-02-14T01:18:52.368Z,99801.00
2023-02-14T01:21:28.136Z,99799.34
2023-02-14T01:23:59.852Z,99789.84
2023-02-14T01:26:29.380Z,99787.13
2023-02-14T01:28:57.553Z,99789.03
2023-02-14T01:31:31.750Z,99785.94
2023-02-14T01:34:00.626Z,99793.00
2023-02-14T01:36:38.724Z,99791.34
2023-02-14T01:39:13.773Z,99786.31
2023-02-14T01:41:44.233Z,99778.47
2023-02-14T01:44:14.834Z,99776.03
2023-02-14T01:46:45.318Z,99770.31
2023-02-14T01:49:18.587Z,99771.25
2023-02-14T01:52:04.498Z,99770.31
2023-02-14T01:54:39.000Z,99766.88
2023-02-14T01:57:12.440Z,99765.41
2023-02-14T01:59:51.249Z,99771.47
2023-02-14T02:02:23.812Z,99765.31
2023-02-14T02:04:56.056Z,99763.56
2023-02-14T02:07:26.952Z,99768.72
2023-02-14T02:10:00.776Z,99766.03
2023-02-14T02:12:30.528Z,99760.84
2023-02-14T02:15:00.542Z,99763.25
2023-02-14T02:17:48.653Z,99767.50
2023-02-14T02:20:31.659Z,99764.94
2023-02-14T02:23:15.120Z,99763.19
2023-02-14T02:26:13.682Z,99762.34
2023-02-14T02:29:32.977Z,99768.44
2023-02-14T02:32:27.879Z,99763.31
2023-02-14T02:35:28.358Z,99770.97
2023-02-14T02:38:10.822Z,99777.72
2023-02-14T02:41:48.953Z,99771.66
2023-02-14T02:44:44.571Z,99774.16
2023-02-14T02:47:37.614Z,99776.84
2023-02-14T02:51:03.551Z,99774.22
2023-02-14T02:53:59.060Z,99774.41
2023-02-14T02:56:47.374Z,99775.22
2023-02-14T02:59:21.372Z,99775.28
2023-02-14T03:02:23.040Z,99781.34
2023-02-14T03:04:59.620Z,99784.00
2023-02-14T03:07:39.871Z,99774.50
2023-02-14T03:10:21.544Z,99769.22
2023-02-14T03:13:26.116Z,99772.88
2023-02-14T03:16:25.750Z,99771.19
2023-02-14T03:19:36.470Z,99770.38
2023-02-14T03:22:20.424Z,99769.41
2023-02-14T03:25:24.661Z,99771.97
2023-02-14T03:28:09.700Z,99780.47
2023-02-14T03:31:07.412Z,99773.69
2023-02-14T03:33:47.626Z,99769.31
2023-02-14T03:36:31.883Z,99778.75
2023-02-14T03:39:16.440Z,99783.13
2023-02-14T03:42:10.061Z,99785.75
2023-02-14T03:44:41.182Z,99776.97
2023-02-14T03:47:16.630Z,99785.63
2023-02-14T03:50:00.191Z,99778.03
2023-02-14T03:52:30.348Z,99779.94
2023-02-14T03:55:01.463Z,99779.94
2023-02-14T03:58:14.661Z,99780.06
2023-02-14T04:00:44.272Z,99773.31
2023-02-14T04:03:15.333Z,99775.88
2023-02-14T04:05:46.858Z,99787.06
2023-02-14T04:08:26.360Z,99775.88
2023-02-14T04:10:56.773Z,99776.56
2023-02-14T04:13:24.449Z,99781.19
2023-02-14T04:15:51.762Z,99779.41
2023-02-14T04:18:37.832Z,99779.31
2023-02-14T04:21:06.004Z,99775.94
2023-02-14T04:23:33.632Z,99782.06
2023-02-14T04:26:00.931Z,99776.09
2023-02-14T04:28:28.547Z,99780.31
2023-02-14T04:30:55.892Z,99771.72
2023-02-14T04:33:24.479Z,99774.31
2023-02-14T04:35:51.759Z,99784.63
2023-02-14T04:38:19.288Z,99779.47
2023-02-14T04:40:52.039Z,99781.31
2023-02-14T04:43:20.268Z,99781.31
2023-02-14T04:45:47.860Z,99779.66
2023-02-14T04:48:15.588Z,99788.16
2023-02-14T04:50:42.815Z,99794.13
2023-02-14T04:53:10.525Z,99789.66
2023-02-14T04:55:37.841Z,99788.81
2023-02-14T04:58:05.512Z,99784.59
2023-02-14T05:00:32.906Z,99788.91
2023-02-14T05:03:00.497Z,99792.13
2023-02-14T05:05:27.837Z,99793.03
2023-02-14T05:07:55.421Z,99800.03
2023-02-14T05:10:22.713Z,99791.34
2023-02-14T05:12:50.245Z,99803.34
2023-02-14T05:15:17.682Z,99797.50
2023-02-14T05:17:45.174Z,99801.75
2023-02-14T05:20:12.854Z,99802.75
2023-02-14T05:22:40.350Z,99799.38
2023-02-14T05:25:08.147Z,99803.69
2023-02-14T05:27:35.668Z,99805.69
2023-02-14T05:30:03.187Z,99804.66
2023-02-14T05:32:30.700Z,99805.72
2023-02-14T05:34:59.209Z,99803.09
2023-02-14T05:37:28.469Z,99800.44
2023-02-14T05:39:55.726Z,99810.03
2023-02-14T05:42:23.284Z,99809.38
2023-02-14T05:44:50.563Z,99819.53
2023-02-14T05:47:18.199Z,99810.13
2023-02-14T05:49:45.485Z,99821.16
2023-02-14T05:52:13.064Z,99813.56
2023-02-14T05:54:40.287Z,99813.63
2023-02-14T05:57:07.964Z,99810.94
2023-02-14T05:59:35.245Z,99816.94
2023-02-14T06:02:02.948Z,99820.06
2023-02-14T06:04:30.367Z,99818.44
2023-02-14T06:06:57.975Z,99820.09
2023-02-14T06:09:25.447Z,99822.63
2023-02-14T06:11:55.200Z,99822.44
2023-02-14T06:14:23.053Z,99824.31
2023-02-14T06:16:50.800Z,99819.16
2023-02-14T06:19:18.134Z,99826.84
2023-02-14T06:21:45.735Z,99836.25
2023-02-14T06:24:13.321Z,99841.44
2023-02-14T06:26:40.847Z,99837.94
2023-02-14T06:29:08.231Z,99836.22
2023-02-14T06:31:36.111Z,99831.91
2023-02-14T06:34:03.375Z,99834.47
2023-02-14T06:36:30.881Z,99834.38
2023-02-14T06:38:58.156Z,99840.38
2023-02-14T06:41:25.750Z,99841.25
2023-02-14T06:43:53.286Z,99836.00
2023-02-14T06:46:21.422Z,99837.84
2023-02-14T06:48:48.814Z,99835.94
2023-02-14T06:51:16.503Z,99839.38
2023-02-14T06:53:43.819Z,99841.84
2023-02-14T06:56:11.442Z,99845.25
2023-02-14T06:58:38.736Z,99839.22
2023-02-14T07:01:06.429Z,99847.69
2023-02-14T07:03:33.659Z,99849.56
2023-02-14T07:06:01.394Z,99843.38
2023-02-14T07:08:28.691Z,99842.44
2023-02-14T07:10:58.869Z,99845.88
2023-02-14T07:13:26.706Z,99858.63
2023-02-14T07:15:54.591Z,99851.69
2023-02-14T07:18:21.972Z,99849.91
2023-02-14T07:20:51.266Z,99863.75
2023-02-14T07:23:19.072Z,99860.94
2023-02-14T07:25:46.669Z,99858.41
2023-02-14T07:28:13.921Z,99854.91
2023-02-14T07:30:41.573Z,99852.91
2023-02-14T07:33:08.987Z,99860.41
2023-02-14T07:35:36.665Z,99854.50
2023-02-14T07:38:04.059Z,99862.94
2023-02-14T07:40:31.925Z,99869.00
2023-02-14T07:43:00.905Z,99860.13
2023-02-14T07:45:28.564Z,99859.22
2023-02-14T07:47:56.011Z,99859.97
2023-02-14T07:50:24.120Z,99860.81
2023-02-14T07:52:51.704Z,99853.63
2023-02-14T07:55:19.516Z,99857.75
2023-02-14T07:57:50.050Z,99853.41
2023-02-14T08:00:18.505Z,99862.13
2023-02-14T08:02:45.859Z,99861.41
2023-02-14T08:05:14.961Z,99862.13
2023-02-14T08:07:44.011Z,99859.34
2023-02-14T08:10:13.126Z,99860.91
2023-02-14T08:12:59.532Z,99863.34
2023-02-14T08:15:54.321Z,99862.16
2023-02-14T08:18:27.558Z,99867.38
2023-02-14T08:20:55.333Z,99866.13
2023-02-14T08:23:23.870Z,99863.50
2023-02-14T08:25:53.252Z,99868.53
2023-02-14T08:28:23.853Z,99866.72
2023-02-14T08:30:52.561Z,99868.22
2023-02-14T08:33:21.047Z,99872.22
2023-02-14T08:35:51.680Z,99874.75
2023-02-14T08:38:19.160Z,99866.56
2023-02-14T08:40:46.785Z,99878.03
2023-02-14T08:43:14.545Z,99867.56
2023-02-14T08:45:42.266Z,99873.28
2023-02-14T08:48:12.695Z,99890.34
2023-02-14T08:50:43.349Z,99886.22
2023-02-14T08:53:13.521Z,99889.94
2023-02-14T08:55:41.636Z,99892.16
2023-02-14T08:58:09.182Z,99895.09
2023-02-14T09:00:36.913Z,99889.34
2023-02-14T09:03:04.545Z,99885.31
2023-02-14T09:05:34.223Z,99891.84
2023-02-14T09:08:03.600Z,99893.72
2023-02-14T09:10:31.731Z,99896.16
2023-02-14T09:12:59.041Z,99893.31
2023-02-14T09:15:26.752Z,99899.38
2023-02-14T09:17:54.079Z,99893.78
2023-02-14T09:20:21.929Z,99896.63
2023-02-14T09:22:49.589Z,99888.66
2023-02-14T09:25:17.616Z,99898.28
2023-02-14T09:27:46.422Z,99889.38
2023-02-14T09:30:15.433Z,99888.50
2023-02-14T09:32:42.779Z,99893.69
2023-02-14T09:35:10.395Z,99894.31
2023-02-14T09:37:37.694Z,99907.66
2023-02-14T09:40:06.340Z,99896.66
2023-02-14T09:42:38.965Z,99905.50
2023-02-14T09:45:26.963Z,99905.81
2023-02-14T09:48:44.387Z,99909.13
2023-02-14T09:51:21.387Z,99912.41
2023-02-14T09:54:15.027Z,99908.88
2023-02-14T09:57:11.469Z,99896.53
2023-02-14T10:00:07.240Z,99893.84
2023-02-14T10:02:46.752Z,99898.28
2023-02-14T10:06:02.275Z,99898.22
2023-02-14T10:08:48.454Z,99896.53
2023-02-14T10:11:22.620Z,99898.69
2023-02-14T10:13:57.562Z,99901.00
2023-02-14T10:16:53.857Z,99904.63
2023-02-14T10:19:32.157Z,99895.50
2023-02-14T10:22:07.198Z,99903.19
2023-02-14T10:24:51.753Z,99909.66
2023-02-14T10:27:58.316Z,99898.28
2023-02-14T10:30:26.220Z,99907.75
2023-02-14T10:33:17.711Z,99892.59
2023-02-14T10:36:19.262Z,99893.97
2023-02-14T10:38:46.515Z,99897.31
2023-02-14T10:41:18.070Z,99894.25
2023-02-14T10:43:54.174Z,99882.34
2023-02-14T10:47:16.339Z,99885.44
2023-02-14T10:50:03.423Z,99886.44
2023-02-14T10:52:53.422Z,99894.06
2023-02-14T10:56:21.851Z,99892.78
2023-02-14T10:58:53.842Z,99889.28
2023-02-14T11:01:21.966Z,99886.53
2023-02-14T11:04:03.838Z,99880.31
2023-02-14T11:06:31.515Z,99874.81
2023-02-14T11:08:59.577Z,99876.19
2023-02-14T11:11:48.586Z,99875.88
2023-02-14T11:14:26.547Z,99869.22
2023-02-14T11:16:55.208Z,99866.81
2023-02-14T11:19:31.775Z,99872.31
2023-02-14T11:22:02.767Z,99867.03
2023-02-14T11:24:42.318Z,99864.34
2023-02-14T11:27:12.575Z,99861.81
2023-02-14T11:29:53.131Z,99863.16
2023-02-14T11:32:24.746Z,99851.25
2023-02-14T11:34:58.082Z,99856.09
2023-02-14T11:37:31.538Z,99856.88
2023-02-14T11:40:02.083Z,99855.78
2023-02-14T11:42:47.756Z,99846.88
2023-02-14T11:45:37.536Z,99850.66
2023-02-14T11:48:37.209Z,99846.34
2023-02-14T11:51:14.135Z,99847.03
2023-02-14T11:53:56.079Z,99850.50
2023-02-14T11:56:24.752Z,99839.50
2023-02-14T11:59:03.065Z,99839.13
2023-02-14T12:01:38.717Z,99838.22
2023-02-14T12:04:20.852Z,99825.69
2023-02-14T12:06:49.038Z,99834.03
2023-02-14T12:09:22.338Z,99830.38
2023-02-14T12:11:58.330Z,99838.16
2023-02-14T12:14:31.109Z,99828.53
2023-02-14T12:17:07.471Z,99827.47
2023-02-14T12:20:08.496Z,99825.94
2023-02-14T12:23:10.941Z,99823.22
2023-02-14T12:26:06.346Z,99817.63
2023-02-14T12:28:48.296Z,99819.00
2023-02-14T12:31:17.564Z,99818.16
2023-02-14T12:33:46.881Z,99815.19
2023-02-14T12:36:41.202Z,99803.16
2023-02-14T12:39:40.848Z,99800.84
2023-02-14T12:42:27.724Z,99797.34
2023-02-14T12:46:04.846Z,99801.88
2023-02-14T12:49:03.335Z,99805.75
2023-02-14T12:51:50.575Z,99796.34
2023-02-14T12:54:39.372Z,99806.00
2023-02-14T12:57:30.662Z,99796.03
2023-02-14T13:00:35.645Z,99797.63
2023-02-14T13:03:34.972Z,99799.94
2023-02-14T13:06:17.815Z,99793.47
2023-02-14T13:09:44.328Z,99794.69
2023-02-14T13:12:23.236Z,99783.41
2023-02-14T13:15:32.883Z,99786.72
2023-02-14T13:18:35.187Z,99784.69
2023-02-14T13:21:09.722Z,99779.13
2023-02-14T13:23:43.951Z,99780.59
2023-02-14T13:26:32.571Z,99774.34
2023-02-14T13:29:09.656Z,99775.34
2023-02-14T13:31:39.470Z,99781.34
2023-02-14T13:34:28.570Z,99777.84
2023-02-14T13:36:59.419Z,99770.84
2023-02-14T13:39:44.433Z,99768.34
2023-02-14T13:42:13.089Z,99772.53
2023-02-14T13:44:48.069Z,99766.13
2023-02-14T13:47:23.237Z,99774.97
2023-02-14T13:50:05.987Z,99769.72
2023-02-14T13:52:54.881Z,99784.56
2023-02-14T13:55:29.361Z,99777.06
2023-02-14T13:58:19.298Z,99772.44
2023-02-14T14:00:49.221Z,99773.91
2023-02-14T14:03:43.092Z,99781.31
2023-02-14T14:06:13.195Z,99781.03
2023-02-14T14:08:45.203Z,99777.41
2023-02-14T14:11:21.606Z,99778.16
2023-02-14T14:14:02.461Z,99779.72
2023-02-14T14:16:36.714Z,99777.84
2023-02-14T14:19:27.024Z,99778.22
2023-02-14T14:22:04.027Z,99779.97
2023-02-14T14:24:38.301Z,99772.22
2023-02-14T14:27:34.860Z,99774.94
2023-02-14T14:30:35.387Z,99767.34
2023-02-14T14:33:32.534Z,99774.28
2023-02-14T14:36:02.632Z,99773.50
2023-02-14T14:38:32.607Z,99776.25
2023-02-14T14:41:02.182Z,99786.03
2023-02-14T14:43:38.522Z,99782.06
2023-02-14T14:46:13.238Z,99779.41
2023-02-14T14:48:54.443Z,99774.59
2023-02-14T14:51:28.980Z,99775.84
2023-02-14T14:54:03.441Z,99781.28
2023-02-14T14:56:47.158Z,99773.53
2023-02-14T14:59:37.455Z,99780.66
2023-02-14T15:02:23.527Z,99771.25
2023-02-14T15:04:50.906Z,99772.44
2023-02-14T15:07:34.784Z,99773.50
2023-02-14T15:10:03.238Z,99767.84
2023-02-14T15:12:49.975Z,99766.41
2023-02-14T15:15:18.917Z,99765.28
2023-02-14T15:17:48.199Z,99764.63
2023-02-14T15:20:21.956Z,99763.75
2023-02-14T15:22:53.186Z,99763.53
2023-02-14T15:25:30.686Z,99767.84
2023-02-14T15:27:58.867Z,99763.91
2023-02-14T15:30:34.044Z,99769.75
2023-02-14T15:33:07.767Z,99768.13
2023-02-14T15:35:42.403Z,99771.72
2023-02-14T15:38:13.489Z,99776.06
2023-02-14T15:40:44.189Z,99769.00
2023-02-14T15:43:33.336Z,99770.03
2023-02-14T15:46:28.949Z,99777.88
2023-02-14T15:49:01.353Z,99773.94
2023-02-14T15:51:36.590Z,99774.72
2023-02-14T15:54:18.225Z,99772.97
2023-02-14T15:56:51.665Z,99775.38
2023-02-14T15:59:19.154Z,99776.06
2023-02-14T16:02:02.366Z,99777.06
2023-02-14T16:04:33.990Z,99781.41
2023-02-14T16:07:27.642Z,99787.47
2023-02-14T16:10:25.916Z,99790.16
2023-02-14T16:13:12.958Z,99791.91
2023-02-14T16:16:03.516Z,99793.72
2023-02-14T16:18:47.840Z,99799.81
2023-02-14T16:21:33.499Z,99798.84
2023-02-14T16:24:11.007Z,99800.63
2023-02-14T16:26:46.909Z,99798.22
2023-02-14T16:29:17.661Z,99800.75
2023-02-14T16:32:14.777Z,99800.75
2023-02-14T16:34:43.608Z,99800.66
2023-02-14T16:37:31.714Z,99807.59
2023-02-14T16:40:02.067Z,99815.31
2023-02-14T16:42:29.820Z,99812.66
2023-02-14T16:44:58.364Z,99804.81
2023-02-14T16:47:27.971Z,99806.84
2023-02-14T16:49:55.414Z,99806.81
2023-02-14T16:52:28.313Z,99806.00
2023-02-14T16:54:55.705Z,99805.09
2023-02-14T16:57:42.980Z,99808.75
2023-02-14T17:00:11.951Z,99814.75
2023-02-14T17:02:39.808Z,99814.59
2023-02-14T17:05:07.551Z,99820.50
2023-02-14T17:07:37.546Z,99820.59
2023-02-14T17:10:17.040Z,99820.56
2023-02-14T17:12:48.796Z,99819.50
2023-02-14T17:15:22.360Z,99822.94
2023-02-14T17:17:55.813Z,99822.03
2023-02-14T17:20:24.474Z,99815.09
2023-02-14T17:22:52.340Z,99814.28
2023-02-14T17:25:19.789Z,99817.84
2023-02-14T17:27:48.321Z,99814.25
2023-02-14T17:30:16.218Z,99815.16
2023-02-14T17:32:44.243Z,99818.56
2023-02-14T17:35:12.125Z,99820.34
2023-02-14T17:37:39.930Z,99816.81
2023-02-14T17:40:08.892Z,99822.78
2023-02-14T17:42:37.408Z,99820.03
2023-02-14T17:45:06.688Z,99817.28
2023-02-14T17:47:35.279Z,99822.31
2023-02-14T17:50:04.047Z,99816.22
2023-02-14T17:52:32.258Z,99815.22
2023-02-14T17:55:00.104Z,99822.06
2023-02-14T17:57:27.766Z,99823.81
2023-02-14T17:59:55.119Z,99817.59
2023-02-14T18:02:22.750Z,99820.09
2023-02-14T18:04:50.117Z,99816.66
2023-02-14T18:07:17.715Z,99822.81
2023-02-14T18:09:44.977Z,99830.66
2023-02-14T18:12:37.432Z,99825.56
2023-02-14T18:15:05.703Z,99822.06
2023-02-14T18:17:34.945Z,99829.06
2023-02-14T18:20:03.293Z,99822.13
2023-02-14T18:22:31.772Z,99821.38
2023-02-14T18:24:59.203Z,99823.16
2023-02-14T18:27:26.892Z,99817.97
2023-02-14T18:29:54.332Z,99811.09
2023-02-14T18:32:21.965Z,99818.03
2023-02-14T18:34:51.321Z,99813.66
2023-02-14T18:37:19.214Z,99810.22
2023-02-14T18:39:46.858Z,99817.97
2023-02-14T18:42:14.487Z,99816.97
2023-02-14T18:44:41.760Z,99815.41
2023-02-14T18:47:09.526Z,99808.63
2023-02-14T18:49:36.849Z,99803.38
2023-02-14T18:52:05.132Z,99805.03
2023-02-14T18:54:32.422Z,99810.97
2023-02-14T18:57:00.220Z,99803.97
2023-02-14T18:59:27.533Z,99810.81
2023-02-14T19:01:55.182Z,99800.44
2023-02-14T19:04:22.451Z,99804.78
2023-02-14T19:06:50.105Z,99798.69
2023-02-14T19:09:18.763Z,99795.22
2023-02-14T19:11:46.665Z,99800.56
2023-02-14T19:14:14.425Z,99798.25
2023-02-14T19:16:51.244Z,99794.09
2023-02-14T19:19:19.775Z,99787.31
2023-02-14T19:21:47.422Z,99789.06
2023-02-14T19:24:17.561Z,99789.91
2023-02-14T19:26:45.653Z,99788.69
2023-02-14T19:29:17.162Z,99789.56
2023-02-14T19:31:52.540Z,99786.09
2023-02-14T19:34:29.368Z,99785.38
2023-02-14T19:37:00.609Z,99783.47
2023-02-14T19:39:30.087Z,99783.53
2023-02-14T19:41:58.934Z,99780.97
2023-02-14T19:44:26.506Z,99788.63
2023-02-14T19:46:56.497Z,99792.16
2023-02-14T19:49:24.018Z,99791.22
2023-02-14T19:51:51.640Z,99792.91
2023-02-14T19:54:21.959Z,99799.84
2023-02-14T19:56:49.624Z,99800.56
2023-02-14T19:59:20.475Z,99803.06
2023-02-14T20:01:55.148Z,99797.84
2023-02-14T20:04:29.543Z,99800.50
2023-02-14T20:06:58.081Z,99796.00
2023-02-14T20:09:25.860Z,99799.41
2023-02-14T20:11:56.088Z,99798.44
2023-02-14T20:14:27.620Z,99799.31
2023-02-14T20:16:59.078Z,99807.16
2023-02-14T20:19:32.665Z,99796.69
2023-02-14T20:22:01.000Z,99807.03
2023-02-14T20:24:31.672Z,99797.44
2023-02-14T20:27:00.629Z,99796.44
2023-02-14T20:29:29.120Z,99793.84
2023-02-14T20:32:01.481Z,99792.03
2023-02-14T20:34:28.996Z,99796.34
2023-02-14T20:36:58.605Z,99794.75
2023-02-14T20:39:31.699Z,99792.25
2023-02-14T20:42:00.871Z,99795.63
2023-02-14T20:44:28.586Z,99792.19
2023-02-14T20:46:57.398Z,99793.88
2023-02-14T20:49:28.229Z,99794.66
2023-02-14T20:51:56.189Z,99788.66
2023-02-14T20:54:26.642Z,99787.88
2023-02-14T20:56:54.295Z,99795.69
2023-02-14T20:59:28.916Z,99790.44
2023-02-14T21:01:59.282Z,99793.94
2023-02-14T21:04:28.249Z,99790.81
2023-02-14T21:06:57.940Z,99786.56
2023-02-14T21:09:25.279Z,99791.06
2023-02-14T21:11:54.074Z,99791.06
2023-02-14T21:14:21.925Z,99790.16
2023-02-14T21:16:49.677Z,99787.56
2023-02-14T21:19:17.716Z,99790.13
2023-02-14T21:21:45.773Z,99787.47
2023-02-14T21:24:16.236Z,99786.63
2023-02-14T21:26:44.957Z,99778.88
2023-02-14T21:29:12.269Z,99771.88
2023-02-14T21:31:40.015Z,99771.81
2023-02-14T21:34:07.359Z,99762.53
2023-02-14T21:36:36.064Z,99767.69
2023-02-14T21:39:04.965Z,99763.34
2023-02-14T21:41:34.302Z,99759.25
2023-02-14T21:44:03.219Z,99756.69
2023-02-14T21:46:36.286Z,99762.00
2023-02-14T21:49:24.556Z,99753.47
2023-02-14T21:51:52.262Z,99749.97
2023-02-14T21:54:19.675Z,99749.91
2023-02-14T21:56:49.307Z,99753.31
2023-02-14T21:59:16.643Z,99747.22
2023-02-14T22:01:44.540Z,99739.41
2023-02-14T22:04:13.050Z,99743.84
2023-02-14T22:06:42.591Z,99742.16
2023-02-14T22:09:13.868Z,99739.69
2023-02-14T22:11:42.233Z,99738.78
2023-02-14T22:14:09.702Z,99738.91
2023-02-14T22:16:38.263Z,99738.97
2023-02-14T22:19:07.582Z,99743.31
2023-02-14T22:21:35.492Z,99739.84
2023-02-14T22:24:03.246Z,99736.44
2023-02-14T22:26:34.742Z,99738.22
2023-02-14T22:29:03.387Z,99734.78
2023-02-14T22:31:37.850Z,99729.53
2023-02-14T22:34:07.793Z,99724.50
2023-02-14T22:36:35.966Z,99729.84
2023-02-14T22:39:04.554Z,99735.84
2023-02-14T22:41:37.760Z,99724.75
2023-02-14T22:44:06.568Z,99727.50
2023-02-14T22:46:38.781Z,99736.19
2023-02-14T22:49:07.803Z,99733.53
2023-02-14T22:51:39.616Z,99729.25
2023-02-14T22:54:14.672Z,99727.53
2023-02-14T22:56:46.690Z,99729.25
2023-02-14T22:59:17.062Z,99725.84
2023-02-14T23:01:45.798Z,99722.38
2023-02-14T23:04:13.709Z,99721.59
2023-02-14T23:06:41.430Z,99719.41
2023-02-14T23:09:11.031Z,99722.00
2023-02-14T23:11:40.896Z,99708.88
2023-02-14T23:14:29.239Z,99706.38
2023-02-14T23:17:15.077Z,99713.34
2023-02-14T23:20:02.697Z,99710.69
2023-02-14T23:22:35.216Z,99716.09
2023-02-14T23:25:07.097Z,99707.53
2023-02-14T23:27:43.040Z,99713.72
2023-02-14T23:30:15.957Z,99704.53
2023-02-14T23:32:43.724Z,99696.69
2023-02-14T23:35:11.749Z,99697.50
2023-02-14T23:37:39.380Z,99698.84
2023-02-14T23:40:07.709Z,99705.66
2023-02-14T23:42:35.337Z,99694.44
2023-02-14T23:45:21.113Z,99699.75
2023-02-14T23:47:49.123Z,99701.50
2023-02-14T23:50:16.584Z,99697.38
2023-02-14T23:52:44.702Z,99698.06
2023-02-14T23:55:12.472Z,99693.53
2023-02-14T23:57:40.581Z,99698.50
